Time;durP1;ratioP1;P1;durP2;ratioP2;P2;SDS_P1;SDS_P2;PMS_P1;PMS_P2;Temp;Humidity;BMP_temperature;BMP_pressure;BME280_temperature;BME280_humidity;BME280_pressure;Samples;Min_cycle;Max_cycle;Signal;HPM_P1;HPM_P2
2022/04/28 00:02:19;;;;;;;;;15.00;11.25;;;;;20.16;35.88;101909.72;5037945;28;45359;-49
2022/04/28 00:04:45;;;;;;;;;12.25;12.25;;;;;20.17;35.85;101910.56;5038177;28;45248;-49
2022/04/28 00:07:11;;;;;;;;;11.00;11.00;;;;;20.16;36.09;101911.47;5037635;28;45433;-49
2022/04/28 00:09:36;;;;;;;;;16.75;14.00;;;;;20.15;35.70;101909.75;5037627;28;45399;-48
2022/04/28 00:12:03;;;;;;;;;12.75;10.50;;;;;20.15;36.46;101907.13;5037968;28;45346;-49
2022/04/28 00:14:30;;;;;;;;;11.75;11.75;;;;;20.16;36.25;101911.47;5037928;28;45449;-49
2022/04/28 00:16:55;;;;;;;;;15.75;14.75;;;;;20.15;36.09;101909.75;5037374;28;46646;-47
2022/04/28 00:19:21;;;;;;;;;13.50;13.50;;;;;20.14;36.04;101908.03;5037539;28;45379;-51
2022/04/28 00:21:46;;;;;;;;;14.50;12.25;;;;;20.15;36.03;101915.03;5037691;28;45323;-49
2022/04/28 00:24:12;;;;;;;;;14.25;13.25;;;;;20.14;35.93;101910.69;5037669;28;45514;-51
2022/04/28 00:26:37;;;;;;;;;12.00;10.50;;;;;20.11;36.31;101902.91;5037304;28;45584;-49
2022/04/28 00:29:02;;;;;;;;;14.50;13.00;;;;;20.14;35.92;101897.50;5037618;28;45246;-50
2022/04/28 00:31:28;;;;;;;;;13.25;12.25;;;;;20.10;36.13;101901.19;5037550;28;45824;-51
2022/04/28 00:33:55;;;;;;;;;14.25;14.25;;;;;20.13;36.04;101904.56;5037491;28;45673;-51
2022/04/28 00:36:21;;;;;;;;;12.25;12.25;;;;;20.13;36.08;101896.66;5037205;28;47011;-49
2022/04/28 00:38:46;;;;;;;;;15.50;13.00;;;;;20.08;36.06;101888.94;5037170;28;45331;-49
2022/04/28 00:41:11;;;;;;;;;11.25;11.25;;;;;20.12;35.96;101900.22;5037296;28;45425;-49
2022/04/28 00:43:51;;;;;;;;;11.50;11.50;;;;;20.13;36.11;101890.53;5037471;28;45518;-49
2022/04/28 00:46:17;;;;;;;;;15.50;14.00;;;;;20.07;36.33;101892.50;5036761;28;46461;-49
2022/04/28 00:51:28;;;;;;;;;13.00;13.00;;;;;20.11;36.00;101895.88;5037116;28;45378;-50
2022/04/28 00:53:54;;;;;;;;;13.50;12.00;;;;;20.10;36.04;101896.78;5037153;28;45637;-49
2022/04/28 00:56:20;;;;;;;;;10.75;9.00;;;;;20.08;36.19;101894.22;5036832;28;45344;-50
2022/04/28 00:58:48;;;;;;;;;14.00;11.75;;;;;20.09;36.51;101895.06;5036870;28;45431;-50
2022/04/28 01:01:13;;;;;;;;;13.75;13.75;;;;;20.10;35.79;101895.94;5035683;28;45447;-50
2022/04/28 01:03:39;;;;;;;;;16.75;12.50;;;;;20.09;36.32;101900.31;5037061;28;45312;-51
2022/04/28 01:06:04;;;;;;;;;11.00;11.00;;;;;20.10;36.24;101899.41;5035624;28;45477;-49
2022/04/28 01:08:30;;;;;;;;;16.25;12.75;;;;;20.10;36.30;101893.31;5037020;28;45352;-50
2022/04/28 01:10:56;;;;;;;;;13.25;11.50;;;;;20.08;35.96;101894.22;5036838;28;45319;-49
2022/04/28 01:13:22;;;;;;;;;13.25;11.50;;;;;20.08;36.19;101891.56;5036725;28;45573;-50
2022/04/28 01:15:49;;;;;;;;;14.25;13.25;;;;;20.09;36.28;101895.06;5036340;28;46061;-50
2022/04/28 01:18:16;;;;;;;;;14.25;13.00;;;;;20.10;35.88;101895.94;5036577;28;45871;-51
2022/04/28 01:20:42;;;;;;;;;12.25;10.50;;;;;20.09;35.78;101889.78;5036695;28;45457;-52
2022/04/28 01:23:09;;;;;;;;;13.25;10.25;;;;;20.09;36.21;101889.78;5036809;28;45450;-49
2022/04/28 01:25:34;;;;;;;;;14.00;11.00;;;;;20.09;35.69;101892.44;5036759;28;46452;-49
2022/04/28 01:28:00;;;;;;;;;13.25;13.25;;;;;20.10;36.19;101895.94;5036374;28;45363;-50
2022/04/28 01:30:26;;;;;;;;;14.50;13.50;;;;;20.08;36.11;101894.22;5036696;28;45288;-49
2022/04/28 01:32:53;;;;;;;;;15.75;13.75;;;;;20.07;35.72;101892.50;5036647;28;45566;-49
2022/04/28 01:35:19;;;;;;;;;12.00;10.75;;;;;20.07;36.29;101889.84;5036288;28;46788;-50
2022/04/28 01:37:44;;;;;;;;;13.75;12.00;;;;;20.05;35.94;101885.56;5036376;28;45259;-50
2022/04/28 01:40:13;;;;;;;;;12.75;11.00;;;;;20.07;36.05;101887.22;5036430;28;45750;-49
2022/04/28 01:42:40;;;;;;;;;11.50;9.00;;;;;20.05;35.76;101886.41;5036662;28;45551;-50
2022/04/28 01:45:07;;;;;;;;;12.75;11.50;;;;;20.06;35.60;101890.78;5036446;28;45418;-48
2022/04/28 01:47:36;;;;;;;;;11.50;11.00;;;;;20.03;35.99;101884.75;5036705;28;45189;-48
2022/04/28 01:50:03;;;;;;;;;12.50;12.25;;;;;20.07;36.23;101891.63;5036418;28;45380;-50
2022/04/28 01:55:14;;;;;;;;;12.50;12.25;;;;;20.05;36.34;101886.41;5036012;28;45694;-49
2022/04/28 01:57:39;;;;;;;;;13.25;13.00;;;;;20.05;35.97;101888.22;5036726;28;45421;-49
2022/04/28 02:00:06;;;;;;;;;12.75;11.75;;;;;20.05;36.21;101889.06;5040202;28;45264;-50
2022/04/28 02:02:32;;;;;;;;;11.25;11.25;;;;;20.04;35.82;101895.22;5039900;28;45509;-51
2022/04/28 02:05:01;;;;;;;;;15.00;12.25;;;;;20.04;35.74;101891.75;5039530;28;45216;-49
2022/04/28 02:07:30;;;;;;;;;12.25;11.00;;;;;20.05;36.41;101901.38;5039573;28;45299;-49
2022/04/28 02:09:57;;;;;;;;;10.00;10.00;;;;;20.05;36.14;101904.00;5039813;28;45367;-51
2022/04/28 02:12:24;;;;;;;;;12.00;10.00;;;;;20.03;36.38;101904.03;5039769;28;45478;-49
2022/04/28 02:14:50;;;;;;;;;15.00;13.25;;;;;20.03;35.73;101901.41;5039157;28;46231;-49
2022/04/28 02:17:17;;;;;;;;;11.75;10.25;;;;;20.03;36.15;101904.03;5039483;28;45377;-50
2022/04/28 02:19:42;;;;;;;;;10.75;10.75;;;;;20.03;35.75;101898.78;5039520;28;45403;-50
2022/04/28 02:22:08;;;;;;;;;11.00;11.00;;;;;20.04;36.26;101907.53;5039976;28;45647;-50
2022/04/28 02:24:33;;;;;;;;;11.50;11.50;;;;;20.04;36.25;101907.53;5039643;28;45410;-52
2022/04/28 02:26:59;;;;;;;;;10.75;9.25;;;;;20.03;35.80;101911.94;5038013;28;45473;-50
2022/04/28 02:29:24;;;;;;;;;11.75;11.00;;;;;20.03;36.34;101896.13;5039389;28;45338;-49
2022/04/28 02:31:50;;;;;;;;;15.00;10.75;;;;;20.02;36.04;101904.94;5039326;28;45406;-49
2022/04/28 02:34:15;;;;;;;;;13.50;12.50;;;;;20.03;36.29;101906.66;5039059;28;45406;-49
2022/04/28 02:36:40;;;;;;;;;14.00;11.25;;;;;20.01;36.26;101902.38;5039148;28;45403;-49
2022/04/28 02:39:06;;;;;;;;;14.00;13.25;;;;;20.02;35.69;101907.56;5039618;28;45300;-50
2022/04/28 02:41:31;;;;;;;;;13.00;10.00;;;;;20.01;36.33;101911.13;5039359;28;45331;-51
2022/04/28 02:43:57;;;;;;;;;10.75;10.75;;;;;20.02;36.02;101909.34;5038986;28;45766;-49
2022/04/28 02:46:23;;;;;;;;;14.00;12.00;;;;;20.01;36.13;101911.13;5038967;28;45370;-50
2022/04/28 02:48:49;;;;;;;;;10.75;10.00;;;;;20.01;35.92;101908.47;5039010;28;45335;-48
2022/04/28 02:51:15;;;;;;;;;11.25;11.25;;;;;20.01;36.19;101911.13;5039102;28;45504;-50
2022/04/28 02:53:41;;;;;;;;;12.75;12.00;;;;;20.01;35.80;101903.22;5038671;28;45469;-50
2022/04/28 02:56:06;;;;;;;;;10.25;9.00;;;;;20.00;36.22;101922.59;5039102;28;45351;-50
2022/04/28 02:58:34;;;;;;;;;9.00;9.00;;;;;20.01;36.22;101918.16;5038997;28;45378;-53
2022/04/28 03:01:01;;;;;;;;;14.00;12.00;;;;;19.98;35.73;101911.25;5038944;28;45538;-50
2022/04/28 03:03:26;;;;;;;;;11.50;10.25;;;;;19.99;36.37;101923.50;5038638;28;46450;-49
2022/04/28 03:11:20;;;;;;;;;10.75;10.00;;;;;19.96;36.15;101918.34;5038218;28;45342;-49
2022/04/28 03:13:45;;;;;;;;;11.00;9.00;;;;;19.99;35.64;101925.25;5038119;28;45468;-50
2022/04/28 03:16:11;;;;;;;;;9.75;9.75;;;;;19.97;35.67;101925.31;5038717;28;45328;-48
2022/04/28 03:18:37;;;;;;;;;12.50;11.50;;;;;19.98;36.13;101923.53;5038865;28;45779;-49
2022/04/28 03:21:05;;;;;;;;;10.00;10.00;;;;;19.99;36.33;101930.50;5038755;28;45509;-50
2022/04/28 03:23:30;;;;;;;;;9.50;9.25;;;;;19.98;36.09;101929.66;5038389;28;45316;-48
2022/04/28 03:25:56;;;;;;;;;10.00;10.00;;;;;19.98;35.82;101929.66;5038197;28;45472;-56
2022/04/28 03:28:22;;;;;;;;;14.25;10.75;;;;;19.97;35.70;101921.81;5038596;28;45347;-50
2022/04/28 03:30:49;;;;;;;;;10.25;10.00;;;;;19.99;35.69;101931.41;5038627;28;45284;-48
2022/04/28 03:33:16;;;;;;;;;9.75;8.50;;;;;19.98;36.04;101932.31;5038146;28;46086;-51
2022/04/28 03:35:41;;;;;;;;;11.75;11.75;;;;;19.98;35.80;101924.41;5038595;28;45330;-49
2022/04/28 03:38:11;;;;;;;;;10.25;9.00;;;;;19.97;35.63;101933.22;5038356;28;45281;-51
2022/04/28 03:40:38;;;;;;;;;9.25;9.25;;;;;19.98;36.30;101934.94;5038492;28;45283;-49
2022/04/28 03:43:04;;;;;;;;;11.00;9.25;;;;;19.95;36.10;101929.78;5038119;28;45995;-49
2022/04/28 03:45:30;;;;;;;;;11.00;10.00;;;;;19.99;35.93;101935.78;5037984;28;46010;-48
2022/04/28 03:47:56;;;;;;;;;10.00;10.00;;;;;19.96;35.77;101927.97;5038302;28;45354;-51
2022/04/28 03:50:21;;;;;;;;;10.25;9.00;;;;;19.97;35.75;101933.22;5038351;28;45537;-49
2022/04/28 03:52:47;;;;;;;;;13.75;12.75;;;;;19.97;35.68;101933.22;5037812;28;45211;-49
2022/04/28 03:55:12;;;;;;;;;12.75;12.25;;;;;19.97;35.68;101925.31;5038254;28;45299;-50
2022/04/28 03:57:37;;;;;;;;;11.00;10.50;;;;;19.95;35.71;101929.78;5037957;28;45690;-47
2022/04/28 04:00:05;;;;;;;;;10.00;10.00;;;;;19.95;35.91;101932.41;5038136;28;45257;-49
2022/04/28 04:02:30;;;;;;;;;13.25;13.25;;;;;19.96;35.91;101943.78;5036488;28;45484;-49
2022/04/28 04:04:56;;;;;;;;;11.75;10.50;;;;;19.96;35.77;101943.78;5037739;28;45434;-49
2022/04/28 04:07:21;;;;;;;;;11.25;10.00;;;;;19.96;36.35;101941.13;5037937;28;45419;-50
2022/04/28 04:09:47;;;;;;;;;10.00;10.00;;;;;19.96;36.31;101941.13;5037928;28;45288;-48
2022/04/28 04:12:12;;;;;;;;;13.00;13.00;;;;;19.93;36.39;101937.72;5037852;28;45965;-48
2022/04/28 04:14:38;;;;;;;;;10.75;10.75;;;;;19.95;35.99;101937.66;5037234;28;45346;-51
2022/04/28 04:17:03;;;;;;;;;10.75;9.00;;;;;19.96;36.21;101942.00;5037686;28;45358;-52
2022/04/28 04:19:29;;;;;;;;;10.50;10.50;;;;;19.95;35.96;101942.09;5037892;28;45422;-48
2022/04/28 04:21:54;;;;;;;;;9.00;8.00;;;;;19.95;36.51;101945.56;5037062;28;45377;-47
2022/04/28 04:24:20;;;;;;;;;9.50;8.50;;;;;19.95;36.69;101942.94;5037428;28;45544;-50
2022/04/28 04:26:45;;;;;;;;;11.00;8.50;;;;;19.95;35.99;101945.56;5037666;28;45343;-48
2022/04/28 04:29:12;;;;;;;;;10.00;10.00;;;;;19.95;36.28;101950.81;5037974;28;45304;-49
2022/04/28 04:34:23;;;;;;;;;9.25;8.75;;;;;19.94;36.08;101959.63;5037243;28;45178;-49
2022/04/28 04:36:48;;;;;;;;;9.75;9.75;;;;;19.94;36.06;101959.63;5037483;28;45311;-50
2022/04/28 04:39:14;;;;;;;;;9.00;6.75;;;;;19.94;36.45;101964.88;5037982;28;45490;-48
2022/04/28 04:41:39;;;;;;;;;12.25;11.00;;;;;19.93;36.63;101958.78;5037084;28;45633;-48
2022/04/28 04:44:04;;;;;;;;;12.25;12.25;;;;;19.93;36.47;101964.03;5037261;28;45426;-49
2022/04/28 04:46:30;;;;;;;;;11.75;9.50;;;;;19.92;36.00;101967.59;5037335;28;45313;-49
2022/04/28 04:48:55;;;;;;;;;10.00;9.00;;;;;19.91;35.97;101965.88;5037439;28;45209;-50
2022/04/28 04:51:21;;;;;;;;;10.75;10.75;;;;;19.90;35.97;101969.41;5035747;28;46071;-51
2022/04/28 04:53:46;;;;;;;;;10.00;10.00;;;;;19.93;36.11;101969.31;5036904;28;45347;-49
2022/04/28 04:56:12;;;;;;;;;7.25;6.00;;;;;19.91;36.08;101960.59;5037354;28;45327;-49
2022/04/28 04:58:37;;;;;;;;;12.00;11.00;;;;;19.91;36.18;101964.97;5037248;28;45260;-50
2022/04/28 05:01:04;;;;;;;;;10.50;9.00;;;;;19.90;36.28;101969.41;5036954;28;45402;-49
2022/04/28 05:03:29;;;;;;;;;13.00;11.50;;;;;19.88;36.07;101963.31;5036859;28;45316;-49
2022/04/28 05:05:54;;;;;;;;;9.25;8.75;;;;;19.90;35.79;101977.28;5037069;28;45444;-48
2022/04/28 05:08:19;;;;;;;;;13.25;11.00;;;;;19.91;36.00;101980.78;5035825;28;45437;-49
2022/04/28 05:10:45;;;;;;;;;10.50;9.25;;;;;19.90;36.28;101979.94;5036887;28;45550;-49
2022/04/28 05:13:11;;;;;;;;;12.00;9.75;;;;;19.89;36.33;101980.84;5036474;28;45490;-48
2022/04/28 05:15:36;;;;;;;;;11.75;10.75;;;;;19.90;36.27;101989.56;5036710;28;45340;-48
2022/04/28 05:18:01;;;;;;;;;10.00;9.00;;;;;19.91;36.14;101980.78;5036980;28;45509;-48
2022/04/28 05:20:27;;;;;;;;;9.75;9.00;;;;;19.90;36.51;101979.94;5036615;28;45366;-51
2022/04/28 05:22:52;;;;;;;;;10.50;10.00;;;;;19.91;36.16;101991.28;5036738;28;45252;-48
2022/04/28 05:25:17;;;;;;;;;11.00;9.75;;;;;19.90;35.92;101992.19;5036699;28;45257;-46
2022/04/28 05:27:43;;;;;;;;;12.75;11.50;;;;;19.89;35.84;101995.78;5037174;28;45631;-49
2022/04/28 05:30:09;;;;;;;;;10.75;8.50;;;;;19.91;35.96;102007.09;5036405;28;46234;-48
2022/04/28 05:32:34;;;;;;;;;11.25;10.00;;;;;19.91;35.99;102009.72;5035301;28;45742;-49
2022/04/28 05:34:59;;;;;;;;;12.75;11.00;;;;;19.89;36.35;102008.94;5036498;28;45235;-49
2022/04/28 05:37:25;;;;;;;;;11.25;10.25;;;;;19.89;36.18;102016.81;5036758;28;45280;-48
2022/04/28 05:39:51;;;;;;;;;9.00;9.00;;;;;19.91;36.37;102020.25;5036123;28;45843;-49
2022/04/28 05:42:16;;;;;;;;;9.75;9.00;;;;;19.91;36.00;102017.59;5036638;28;45421;-49
2022/04/28 05:47:26;;;;;;;;;11.25;9.75;;;;;19.90;36.24;102023.78;5036456;28;45268;-47
2022/04/28 05:49:53;;;;;;;;;10.00;9.00;;;;;19.91;36.34;102023.75;5036151;28;47106;-48
2022/04/28 05:52:18;;;;;;;;;12.75;11.00;;;;;19.90;36.20;102027.28;5036377;28;45300;-48
2022/04/28 05:54:44;;;;;;;;;10.00;10.00;;;;;19.90;36.20;102031.66;5036590;28;45358;-49
2022/04/28 05:57:11;;;;;;;;;12.00;10.25;;;;;19.92;36.56;102029.84;5036674;28;45588;-49
2022/04/28 05:59:37;;;;;;;;;12.25;10.25;;;;;19.89;36.11;102019.47;5036055;28;47148;-48
2022/04/28 06:02:02;;;;;;;;;11.75;10.25;;;;;19.93;36.62;102032.44;5036191;28;45390;-50
2022/04/28 06:04:27;;;;;;;;;15.00;15.00;;;;;19.93;36.20;102031.56;5036100;28;45453;-49
2022/04/28 06:06:53;;;;;;;;;11.25;9.75;;;;;19.93;36.33;102037.72;5036243;28;45536;-47
2022/04/28 06:09:18;;;;;;;;;13.00;11.00;;;;;19.93;35.96;102042.97;5036225;28;45356;-50
2022/04/28 06:11:43;;;;;;;;;18.67;14.00;;;;;19.95;36.09;102036.81;5035650;28;51765;-49
2022/04/28 06:14:09;;;;;;;;;10.75;9.50;;;;;19.95;36.33;102045.53;5035838;28;45808;-47
2022/04/28 06:16:34;;;;;;;;;11.50;10.00;;;;;19.94;35.96;102038.56;5036252;28;45296;-50
2022/04/28 06:18:59;;;;;;;;;14.00;13.25;;;;;19.94;36.29;102046.47;5035909;28;45427;-48
2022/04/28 06:21:25;;;;;;;;;14.75;13.50;;;;;19.95;36.06;102050.81;5035837;28;45319;-50
2022/04/28 06:23:50;;;;;;;;;14.33;11.67;;;;;19.92;36.03;102049.16;5036148;28;45760;-49
2022/04/28 06:26:16;;;;;;;;;16.50;13.25;;;;;19.89;35.81;102046.63;5036564;28;45678;-47
2022/04/28 06:28:41;;;;;;;;;15.00;14.00;;;;;19.93;35.75;102052.63;5035816;28;45382;-48
2022/04/28 06:31:07;;;;;;;;;10.50;9.25;;;;;19.92;35.60;102057.03;5035736;28;45440;-50
2022/04/28 06:33:32;;;;;;;;;13.00;13.00;;;;;19.92;36.00;102056.16;5035876;28;45446;-48
2022/04/28 06:35:58;;;;;;;;;10.00;10.00;;;;;19.91;35.79;102057.06;5036040;28;45375;-49
2022/04/28 06:38:24;;;;;;;;;12.00;11.00;;;;;19.92;35.75;102057.03;5035590;28;47118;-48
2022/04/28 06:40:49;;;;;;;;;11.50;11.00;;;;;19.89;35.94;102053.66;5035857;28;45429;-47
2022/04/28 06:43:16;;;;;;;;;12.25;12.25;;;;;19.90;35.91;102058.84;5035690;28;45410;-54
2022/04/28 06:46:11;;;;;;;;;13.25;11.50;;;;;19.93;36.23;102065.78;5039184;28;45514;-51
2022/04/28 06:48:27;;;;;;;;;13.75;9.50;;;;;19.92;36.32;102070.19;5038758;28;45402;-49
2022/04/28 06:50:52;;;;;;;;;14.00;12.25;;;;;19.94;36.52;102070.13;5038763;28;45354;-48
2022/04/28 06:53:18;;;;;;;;;11.00;9.00;;;;;19.95;36.49;102074.50;5038856;28;49763;-48
2022/04/28 06:55:43;;;;;;;;;13.50;12.50;;;;;19.95;36.58;102066.59;5039207;28;45486;-49
2022/04/28 06:58:08;;;;;;;;;15.67;13.67;;;;;19.97;36.39;102069.16;5038281;28;58828;-49
2022/04/28 07:00:34;;;;;;;;;13.75;12.75;;;;;19.96;36.28;102064.81;5038663;28;45269;-49
2022/04/28 07:02:59;;;;;;;;;13.50;13.00;;;;;19.97;35.76;102071.78;5037621;28;45296;-49
2022/04/28 07:05:24;;;;;;;;;13.50;11.50;;;;;19.98;36.62;102077.03;5038898;28;45199;-48
2022/04/28 07:07:50;;;;;;;;;15.75;12.50;;;;;19.98;36.13;102082.28;5038901;28;45212;-49
2022/04/28 07:10:15;;;;;;;;;15.00;14.00;;;;;19.97;36.42;102077.94;5038590;28;45227;-49
2022/04/28 07:12:41;;;;;;;;;12.50;9.00;;;;;19.98;36.04;102076.16;5038647;28;45162;-47
2022/04/28 07:15:06;;;;;;;;;16.75;13.50;;;;;19.98;36.31;102079.66;5037371;28;45415;-48
2022/04/28 07:17:32;;;;;;;;;13.75;13.00;;;;;19.99;36.42;102077.88;5038352;28;45415;-49
2022/04/28 07:19:57;;;;;;;;;11.75;11.75;;;;;19.98;36.27;102084.06;5038493;28;45395;-48
2022/04/28 07:22:23;;;;;;;;;15.75;12.75;;;;;20.00;36.73;102084.88;5038882;28;45398;-50
2022/04/28 07:24:48;;;;;;;;;17.75;14.75;;;;;20.01;36.97;102090.06;5038723;28;45613;-47
2022/04/28 07:27:13;;;;;;;;;18.50;17.75;;;;;20.06;36.52;102079.41;5038273;28;45976;-50
2022/04/28 07:29:39;;;;;;;;;16.00;16.00;;;;;20.08;37.02;102083.72;5038326;28;45414;-49
2022/04/28 07:32:04;;;;;;;;;19.75;13.25;;;;;20.10;36.70;102080.16;5038420;28;45280;-52
2022/04/28 07:34:29;;;;;;;;;20.75;18.25;;;;;20.10;36.96;102080.16;5038441;28;45580;-51
2022/04/28 07:36:55;;;;;;;;;19.25;15.00;;;;;20.08;36.52;102086.34;5038151;28;46010;-50
2022/04/28 07:39:20;;;;;;;;;21.25;20.25;;;;;20.08;36.55;102083.72;5038494;28;45433;-52
2022/04/28 07:41:45;;;;;;;;;19.25;16.25;;;;;20.08;36.75;102088.09;5038346;28;45303;-50
2022/04/28 07:44:11;;;;;;;;;17.25;14.75;;;;;20.10;36.72;102085.44;5038392;28;45343;-49
2022/04/28 07:46:38;;;;;;;;;23.25;18.50;;;;;20.07;36.45;102084.63;5037981;28;45940;-48
2022/04/28 07:49:03;;;;;;;;;19.25;16.75;;;;;20.08;36.45;102090.72;5037990;28;45808;-50
2022/04/28 07:51:29;;;;;;;;;19.75;18.00;;;;;20.08;36.67;102083.72;5038183;28;45387;-53
2022/04/28 07:53:54;;;;;;;;;21.25;17.75;;;;;20.06;36.36;102087.31;5038602;28;45577;-49
2022/04/28 07:56:21;;;;;;;;;21.75;19.00;;;;;20.05;36.67;102091.69;5037476;28;47043;-51
2022/04/28 07:58:46;;;;;;;;;19.00;18.75;;;;;20.03;36.60;102088.25;5036607;28;46021;-50
2022/04/28 08:01:12;;;;;;;;;18.75;18.00;;;;;20.02;36.21;102088.31;5037965;28;45332;-52
2022/04/28 08:03:39;;;;;;;;;22.25;20.50;;;;;20.00;36.40;102085.75;5036786;28;45394;-49
2022/04/28 08:06:05;;;;;;;;;19.75;18.25;;;;;20.05;36.37;102098.75;5037644;28;46078;-51
2022/04/28 08:08:31;;;;;;;;;21.75;21.00;;;;;20.03;36.53;102093.50;5037956;28;45360;-50
2022/04/28 08:10:56;;;;;;;;;16.75;15.50;;;;;20.05;36.25;102099.59;5037748;28;45337;-49
2022/04/28 08:13:22;;;;;;;;;24.50;20.50;;;;;20.04;36.07;102097.88;5036749;28;45426;-48
2022/04/28 08:15:48;;;;;;;;;20.50;18.75;;;;;20.05;35.83;102098.75;5037497;28;46161;-51
2022/04/28 08:18:13;;;;;;;;;18.75;17.50;;;;;20.06;36.20;102096.06;5037469;28;45370;-50
2022/04/28 08:20:40;;;;;;;;;17.50;15.75;;;;;20.05;36.29;102102.22;5036330;28;45241;-49
2022/04/28 08:23:06;;;;;;;;;20.25;17.50;;;;;20.06;36.19;102105.72;5037872;28;45460;-49
2022/04/28 08:25:31;;;;;;;;;20.25;17.00;;;;;20.04;35.85;102103.13;5037364;28;45343;-53
2022/04/28 08:27:56;;;;;;;;;18.25;16.75;;;;;20.06;35.87;102103.09;5037823;28;45474;-52
2022/04/28 08:30:22;;;;;;;;;22.50;16.50;;;;;20.05;36.29;102104.84;5037741;28;45823;-53
2022/04/28 08:32:47;;;;;;;;;16.50;15.50;;;;;20.05;35.78;102099.59;5037513;28;45678;-49
2022/04/28 08:35:12;;;;;;;;;20.67;19.00;;;;;20.05;36.20;102104.84;5037188;28;46071;-49
2022/04/28 08:37:39;;;;;;;;;17.25;15.50;;;;;20.06;36.24;102101.31;5037259;28;45387;-52
2022/04/28 08:40:05;;;;;;;;;23.00;19.00;;;;;20.06;36.18;102098.69;5037440;28;45557;-47
2022/04/28 08:42:32;;;;;;;;;21.25;19.25;;;;;20.05;35.93;102107.47;5036245;28;45393;-50
2022/04/28 08:44:59;;;;;;;;;22.75;17.25;;;;;20.06;36.32;102106.56;5036105;28;46207;-51
2022/04/28 08:47:25;;;;;;;;;20.75;19.00;;;;;20.06;36.19;102108.38;5037319;28;45815;-50
2022/04/28 08:49:51;;;;;;;;;20.75;19.75;;;;;20.07;35.91;102108.31;5037142;28;45312;-52
2022/04/28 08:52:17;;;;;;;;;18.25;15.50;;;;;20.07;36.05;102108.31;5037430;28;45524;-51
2022/04/28 08:54:44;;;;;;;;;20.50;19.75;;;;;20.07;35.71;102110.94;5035552;28;46254;-50
2022/04/28 08:57:11;;;;;;;;;19.25;17.50;;;;;20.06;35.98;102101.31;5037028;28;45945;-52
2022/04/28 08:59:37;;;;;;;;;24.00;22.00;;;;;20.06;35.69;102098.69;5036950;28;45260;-51
2022/04/28 09:02:02;;;;;;;;;23.50;22.00;;;;;20.03;35.60;102087.41;5037038;28;45605;-51
2022/04/28 09:04:29;;;;;;;;;18.25;18.25;;;;;20.05;35.87;102091.69;5037028;28;45691;-50
2022/04/28 09:06:56;;;;;;;;;21.50;18.75;;;;;20.05;36.01;102094.31;5037228;28;45787;-53
2022/04/28 09:09:21;;;;;;;;;20.00;17.75;;;;;20.04;35.53;102091.75;5037012;28;45254;-50
2022/04/28 09:11:48;;;;;;;;;20.50;19.00;;;;;20.04;35.85;102092.59;5037013;28;45408;-50
2022/04/28 09:14:15;;;;;;;;;21.25;18.25;;;;;20.04;35.46;102097.03;5036424;28;47172;-52
2022/04/28 09:17:06;;;;;;;;;17.75;15.50;;;;;20.03;35.59;102088.25;5036776;28;45358;-52
2022/04/28 09:19:34;;;;;;;;;18.50;18.50;;;;;20.02;35.40;102083.88;5033893;28;45559;-49
2022/04/28 09:22:13;;;;;;;;;16.25;16.25;;;;;20.01;35.67;102079.53;5037448;28;45701;-49
2022/04/28 09:24:40;;;;;;;;;19.25;19.00;;;;;20.00;35.63;102077.84;5035340;28;46474;-48
2022/04/28 09:27:07;;;;;;;;;19.75;17.75;;;;;20.02;35.59;102078.63;5036516;28;45885;-52
2022/04/28 09:29:36;;;;;;;;;17.25;16.25;;;;;20.03;35.34;102080.34;5036755;28;45419;-51
2022/04/28 09:32:06;;;;;;;;;18.00;18.00;;;;;20.03;35.52;102080.34;5036740;28;45510;-50
2022/04/28 09:34:32;;;;;;;;;18.00;17.50;;;;;20.03;35.27;102080.34;5036409;28;47114;-52
2022/04/28 09:36:58;;;;;;;;;19.25;19.25;;;;;20.04;35.14;102076.81;5036656;28;45330;-50
2022/04/28 09:42:31;;;;;;;;;15.00;13.50;;;;;20.01;35.35;102074.28;5036497;28;45486;-50
2022/04/28 09:45:00;;;;;;;;;16.00;15.00;;;;;20.03;35.80;102080.34;5036557;28;45294;-51
2022/04/28 09:47:27;;;;;;;;;16.00;15.25;;;;;20.04;35.59;102071.53;5036252;28;45736;-50
2022/04/28 09:49:55;;;;;;;;;14.00;14.00;;;;;20.06;35.30;102072.38;5036311;28;45257;-49
2022/04/28 09:52:23;;;;;;;;;13.00;13.00;;;;;20.07;35.17;102075.84;5036386;28;45977;-48
2022/04/28 09:54:50;;;;;;;;;18.75;16.75;;;;;20.07;34.95;102071.44;5035915;28;45656;-51
2022/04/28 09:57:20;;;;;;;;;18.00;18.00;;;;;20.09;35.25;102076.66;5036098;28;46040;-51
2022/04/28 09:59:53;;;;;;;;;17.00;16.00;;;;;20.08;35.36;102070.53;5036194;28;45384;-50
2022/04/28 10:02:21;;;;;;;;;17.00;13.75;;;;;20.10;35.26;102070.47;5036263;28;45331;-51
2022/04/28 10:04:48;;;;;;;;;17.75;16.00;;;;;20.08;35.02;102073.19;5036201;28;45937;-51
2022/04/28 10:07:14;;;;;;;;;18.25;16.75;;;;;20.08;35.02;102070.53;5035933;28;45291;-50
2022/04/28 10:09:45;;;;;;;;;18.50;18.50;;;;;20.10;34.96;102064.38;5036148;28;45232;-50
2022/04/28 10:12:13;;;;;;;;;20.75;18.00;;;;;20.10;34.54;102059.09;5036095;28;45323;-50
2022/04/28 10:14:40;;;;;;;;;16.50;16.00;;;;;20.10;34.68;102054.69;5035518;28;46259;-52
2022/04/28 10:17:11;;;;;;;;;18.50;17.00;;;;;20.11;34.82;102063.47;5035857;28;45927;-50
2022/04/28 10:19:43;;;;;;;;;18.00;15.75;;;;;20.10;34.70;102067.00;5037803;28;45272;-51
2022/04/28 10:22:12;;;;;;;;;17.75;15.25;;;;;20.10;34.72;102059.09;5039757;28;45336;-53
2022/04/28 10:33:00;;;;;;;;;16.50;16.50;;;;;20.11;34.43;102055.56;5039517;28;45473;-50
2022/04/28 10:35:31;;;;;;;;;13.00;13.00;;;;;20.11;34.74;102035.34;5039175;28;45347;-52
2022/04/28 10:38:11;;;;;;;;;17.75;15.75;;;;;20.11;34.43;102051.16;5037862;28;45470;-49
2022/04/28 10:40:44;;;;;;;;;18.50;14.50;;;;;20.12;34.58;102050.25;5039364;28;45269;-52
2022/04/28 10:43:23;;;;;;;;;16.25;15.00;;;;;20.13;34.76;102041.44;5039237;28;45379;-52
2022/04/28 10:45:49;;;;;;;;;16.00;14.25;;;;;20.13;34.58;102033.53;5038984;28;45465;-51
2022/04/28 10:48:30;;;;;;;;;15.75;15.25;;;;;20.15;34.49;102028.22;5038925;28;45201;-50
2022/04/28 10:51:14;;;;;;;;;15.00;12.75;;;;;20.16;34.38;102033.44;5039139;28;45391;-52
2022/04/28 10:53:59;;;;;;;;;17.25;16.25;;;;;20.16;34.33;102028.19;5039155;28;45380;-50
2022/04/28 10:56:54;;;;;;;;;14.50;12.50;;;;;20.16;34.41;102038.69;5038802;28;46430;-52
2022/04/28 10:59:34;;;;;;;;;16.00;14.25;;;;;20.19;33.97;102019.31;5038670;28;45446;-58
2022/04/28 11:02:25;;;;;;;;;14.00;14.00;;;;;20.18;34.12;102026.31;5039296;28;45415;-51
2022/04/28 11:05:01;;;;;;;;;14.00;14.00;;;;;20.19;33.71;102020.16;5039126;28;45387;-53
2022/04/28 11:07:29;;;;;;;;;13.25;13.00;;;;;20.20;33.72;102029.78;5038874;28;46012;-53
2022/04/28 11:09:59;;;;;;;;;14.00;14.00;;;;;20.21;33.91;102025.38;5038759;28;45734;-52
2022/04/28 11:12:33;;;;;;;;;13.50;11.00;;;;;20.21;33.73;102020.13;5038771;28;45304;-51
2022/04/28 11:15:03;;;;;;;;;13.00;11.00;;;;;20.20;34.04;102032.41;5038848;28;45252;-53
2022/04/28 11:17:33;;;;;;;;;14.50;12.25;;;;;20.20;33.58;102028.91;5038402;28;46702;-50
2022/04/28 11:20:04;;;;;;;;;15.25;13.25;;;;;20.22;33.34;102027.94;5038572;28;45406;-50
2022/04/28 11:22:31;;;;;;;;;12.25;12.00;;;;;20.24;33.54;102027.88;5038508;28;45248;-50
2022/04/28 11:24:56;;;;;;;;;12.50;12.50;;;;;20.23;33.14;102023.53;5038945;28;45619;-55
2022/04/28 11:27:24;;;;;;;;;12.50;11.75;;;;;20.27;33.18;102026.94;5038266;28;46292;-53
2022/04/28 11:29:51;;;;;;;;;11.00;11.00;;;;;20.30;33.03;102037.34;5037855;28;45383;-53
2022/04/28 11:32:17;;;;;;;;;12.75;10.00;;;;;20.31;32.66;102036.44;5037930;28;45311;-52
2022/04/28 11:34:44;;;;;;;;;10.50;10.50;;;;;20.29;32.76;102028.59;5038572;28;45318;-52
2022/04/28 11:37:12;;;;;;;;;12.00;11.75;;;;;20.32;32.69;102031.13;5038231;28;46364;-51
2022/04/28 11:39:38;;;;;;;;;9.50;9.50;;;;;20.32;32.55;102039.03;5038252;28;45425;-51